Insignia — V7DM2 — position and weather

sailwx.info

Track history (hours):
 
Tides and Currents Weather Stations Pressure Air Temp Water Temp Dewpoint Dewpoint Depression Visibility Wind Speed Wind Dir Waves Ship Positions

Insignia

Last reported at 2020-Jul-30 22:30 UTC. Time now 2020-Aug-07 04:41 UTC.
Position N 25°26' W 079°56'.

Length 185 m; draft 6 m.

Type: Passenger vessel. MMSI: 538001663.

Date/timePositionNaut miles runAvg speedWind from/ knotsBaromVisibWave heightAir tempDewpointWater temp
2020-Jul-30 22:30N 25°26' W 079°56'1313.4
2020-Jul-30 21:30N 25°39' W 079°60'1110.6
2020-Jul-30 20:31N 25°46' W 080°09'2 2.0
2020-Jul-30 19:31N 25°46' W 080°11'0 0.0
2020-Jul-30 13:28N 25°46' W 080°11'0 0.0
2020-Jul-30 10:31N 25°46' W 080°11'0 0.0
2020-Jul-30 09:01N 25°46' W 080°11'0 0.0
2020-Jul-30 08:28N 25°46' W 080°11'0 0.0
2020-Jul-30 05:58N 25°46' W 080°11'0 0.0
2020-Jul-30 04:01N 25°46' W 080°11'0 0.0
2020-Jul-29 20:58N 25°46' W 080°11'0 0.0
2020-Jul-29 20:28N 25°46' W 080°11'0 0.0
2020-Jul-29 19:31N 25°46' W 080°11'0 0.0
2020-Jul-29 17:01N 25°46' W 080°11'0 0.0
2020-Jul-29 16:28N 25°46' W 080°11'0 0.0
2020-Jul-29 15:31N 25°46' W 080°11'0 0.0
2020-Jul-29 14:28N 25°46' W 080°11'18 3.6
2020-Jul-29 09:30N 25°56' W 079°54'17 1.0
2020-Jul-28 17:00N 26°11' W 079°46'2010.0
2020-Jul-28 15:00N 25°52' W 079°51'13 6.4
2020-Jul-28 13:00N 25°48' W 080°05'0 0.0
2020-Jul-28 11:30N 25°48' W 080°05'0 0.0
2020-Jul-28 11:00N 25°48' W 080°05'0 0.0
2020-Jul-28 10:30N 25°48' W 080°05'0 0.0
2020-Jul-28 09:30N 25°48' W 080°05'0 0.0
2020-Jul-28 06:30N 25°48' W 080°05'0 0.0
2020-Jul-28 05:30N 25°48' W 080°05'0 0.0
2020-Jul-28 01:30N 25°48' W 080°05'0 0.0
2020-Jul-27 23:00N 25°48' W 080°05'0 0.0
2020-Jul-27 19:00N 25°48' W 080°05'0 0.0
2020-Jul-27 17:30N 25°48' W 080°05'0 0.0
2020-Jul-27 17:00N 25°48' W 080°05'0 0.0
2020-Jul-27 16:30N 25°48' W 080°05'0 0.1
2020-Jul-27 16:00N 25°48' W 080°05'0 0.0
2020-Jul-27 15:30N 25°48' W 080°05'0 0.1
2020-Jul-27 15:00N 25°48' W 080°05'0 0.0
2020-Jul-27 14:30N 25°48' W 080°05'0 0.0
2020-Jul-27 12:00N 25°48' W 080°05'0 0.0
2020-Jul-27 10:00N 25°48' W 080°05'0 0.0
2020-Jul-27 09:30N 25°48' W 080°05'0 0.0
2020-Jul-27 08:00N 25°48' W 080°05'0 0.0
2020-Jul-27 06:30N 25°48' W 080°05'0 0.0
2020-Jul-27 05:30N 25°48' W 080°05'0 0.1
2020-Jul-27 04:30N 25°48' W 080°05'0 0.0
2020-Jul-27 03:30N 25°48' W 080°05'0 0.0
2020-Jul-27 03:00N 25°48' W 080°05'0 0.0
2020-Jul-27 02:30N 25°48' W 080°05'0 0.0
2020-Jul-27 02:00N 25°48' W 080°05'0 0.0
2020-Jul-27 01:00N 25°48' W 080°05'0 0.0
2020-Jul-26 20:30N 25°48' W 080°05'0 0.0
2020-Jul-26 18:00N 25°48' W 080°05'0 0.0
2020-Jul-26 17:30N 25°48' W 080°05'0 0.0
2020-Jul-26 16:00N 25°48' W 080°05'0 0.0
2020-Jul-26 15:30N 25°48' W 080°05'0 0.0
2020-Jul-26 12:00N 25°48' W 080°05'0 0.0
2020-Jul-26 11:30N 25°48' W 080°05'0 0.0
2020-Jul-26 09:00N 25°48' W 080°05'0 0.0
2020-Jul-26 07:30N 25°48' W 080°05'0 0.0
2020-Jul-26 05:30N 25°48' W 080°05'0 0.0
2020-Jul-26 02:30N 25°48' W 080°05'0 0.0
2020-Jul-25 09:59N 25°48' W 080°05'0 0.0
2020-Jul-25 07:29N 25°48' W 080°05'0 0.0
2020-Jul-25 05:59N 25°48' W 080°05'0 0.0
2020-Jul-25 05:29N 25°48' W 080°05'0 0.0
2020-Jul-25 04:29N 25°48' W 080°05'0 0.0
2020-Jul-25 03:59N 25°48' W 080°05'0 0.0
2020-Jul-25 01:59N 25°48' W 080°05'0 0.0
2020-Jul-24 20:29N 25°48' W 080°05'0 0.0
2020-Jul-24 12:29N 25°48' W 080°05'0 0.0
2020-Jul-24 10:29N 25°48' W 080°05'0 0.0
2020-Jul-24 08:59N 25°48' W 080°05'0 0.0
2020-Jul-24 07:59N 25°48' W 080°05'0 0.0
2020-Jul-24 07:29N 25°48' W 080°05'0 0.0
2020-Jul-24 06:29N 25°48' W 080°05'0 0.0
2020-Jul-24 05:59N 25°48' W 080°05'0 0.0
2020-Jul-24 05:29N 25°48' W 080°05'0 0.0
2020-Jul-24 04:29N 25°48' W 080°05'0 0.0
2020-Jul-24 02:59N 25°48' W 080°05'0 0.0
2020-Jul-23 19:59N 25°48' W 080°05'0 0.0
2020-Jul-23 15:29N 25°48' W 080°05'0 0.0
2020-Jul-23 13:29N 25°48' W 080°05'0 0.0
2020-Jul-23 10:29N 25°48' W 080°05'0 0.0
2020-Jul-23 04:59N 25°48' W 080°05'0 0.0
2020-Jul-23 03:59N 25°48' W 080°05'0 0.0
2020-Jul-23 02:29N 25°48' W 080°05'0 0.0
2020-Jul-23 01:29N 25°48' W 080°05'0 0.0
2020-Jul-22 23:29N 25°48' W 080°05'0 0.0
2020-Jul-22 20:29N 25°48' W 080°05'0 0.0
2020-Jul-22 18:29N 25°48' W 080°05'0 0.0
2020-Jul-22 17:23N 25°48' W 080°05'0 0.0
2020-Jul-22 16:29N 25°48' W 080°05'0 0.0
2020-Jul-22 11:59N 25°48' W 080°05'0 0.0
2020-Jul-22 10:29N 25°48' W 080°05'0 0.0
2020-Jul-22 07:59N 25°48' W 080°05'0 0.0
2020-Jul-22 06:29N 25°48' W 080°05'0 0.0
2020-Jul-22 05:26N 25°48' W 080°05'0 0.0
2020-Jul-22 03:29N 25°48' W 080°05'0 0.0
2020-Jul-22 02:29N 25°48' W 080°05'0 0.0
2020-Jul-21 22:29N 25°48' W 080°05'0 0.0
2020-Jul-21 21:29N 25°48' W 080°05'0 0.0
2020-Jul-21 19:56N 25°48' W 080°05'0 0.0
2020-Jul-21 19:29N 25°48' W 080°05'0 0.0
2020-Jul-21 17:29N 25°48' W 080°05'0 0.0
2020-Jul-21 15:29N 25°48' W 080°05'0 0.0
2020-Jul-21 13:29N 25°48' W 080°05'0 0.0
2020-Jul-21 11:59N 25°48' W 080°05'0 0.0
2020-Jul-21 09:29N 25°48' W 080°05'0 0.0
2020-Jul-21 07:59N 25°48' W 080°05'0 0.0
2020-Jul-21 07:29N 25°48' W 080°05'0 0.0
2020-Jul-21 04:29N 25°48' W 080°05'0 0.0
2020-Jul-21 02:26N 25°48' W 080°05'0 0.0
2020-Jul-20 23:56N 25°48' W 080°05'  
Track history (hours):
 
Tides and Currents Weather Stations Pressure Air Temp Water Temp Dewpoint Dewpoint Depression Visibility Wind Speed Wind Dir Waves Ship Positions

Insignia

Last reported at 2020-Jul-30 22:30 UTC. Time now 2020-Aug-07 04:41 UTC.
Position N 25°26' W 079°56'.

Length 185 m; draft 6 m.

Type: Passenger vessel. MMSI: 538001663.

Date/timePositionNaut miles runAvg speedWind from/ knotsBaromVisibWave heightAir tempDewpointWater temp
2020-Jul-30 22:30N 25°26' W 079°56'1313.4
2020-Jul-30 21:30N 25°39' W 079°60'1110.6
2020-Jul-30 20:31N 25°46' W 080°09'2 2.0
2020-Jul-30 19:31N 25°46' W 080°11'0 0.0
2020-Jul-30 13:28N 25°46' W 080°11'0 0.0
2020-Jul-30 10:31N 25°46' W 080°11'0 0.0
2020-Jul-30 09:01N 25°46' W 080°11'0 0.0
2020-Jul-30 08:28N 25°46' W 080°11'0 0.0
2020-Jul-30 05:58N 25°46' W 080°11'0 0.0
2020-Jul-30 04:01N 25°46' W 080°11'0 0.0
2020-Jul-29 20:58N 25°46' W 080°11'0 0.0
2020-Jul-29 20:28N 25°46' W 080°11'0 0.0
2020-Jul-29 19:31N 25°46' W 080°11'0 0.0
2020-Jul-29 17:01N 25°46' W 080°11'0 0.0
2020-Jul-29 16:28N 25°46' W 080°11'0 0.0
2020-Jul-29 15:31N 25°46' W 080°11'0 0.0
2020-Jul-29 14:28N 25°46' W 080°11'18 3.6
2020-Jul-29 09:30N 25°56' W 079°54'17 1.0
2020-Jul-28 17:00N 26°11' W 079°46'2010.0
2020-Jul-28 15:00N 25°52' W 079°51'13 6.4
2020-Jul-28 13:00N 25°48' W 080°05'0 0.0
2020-Jul-28 11:30N 25°48' W 080°05'0 0.0
2020-Jul-28 11:00N 25°48' W 080°05'0 0.0
2020-Jul-28 10:30N 25°48' W 080°05'0 0.0
2020-Jul-28 09:30N 25°48' W 080°05'0 0.0
2020-Jul-28 06:30N 25°48' W 080°05'0 0.0
2020-Jul-28 05:30N 25°48' W 080°05'0 0.0
2020-Jul-28 01:30N 25°48' W 080°05'0 0.0
2020-Jul-27 23:00N 25°48' W 080°05'0 0.0
2020-Jul-27 19:00N 25°48' W 080°05'0 0.0
2020-Jul-27 17:30N 25°48' W 080°05'0 0.0
2020-Jul-27 17:00N 25°48' W 080°05'0 0.0
2020-Jul-27 16:30N 25°48' W 080°05'0 0.1
2020-Jul-27 16:00N 25°48' W 080°05'0 0.0
2020-Jul-27 15:30N 25°48' W 080°05'0 0.1
2020-Jul-27 15:00N 25°48' W 080°05'0 0.0
2020-Jul-27 14:30N 25°48' W 080°05'0 0.0
2020-Jul-27 12:00N 25°48' W 080°05'0 0.0
2020-Jul-27 10:00N 25°48' W 080°05'0 0.0
2020-Jul-27 09:30N 25°48' W 080°05'0 0.0
2020-Jul-27 08:00N 25°48' W 080°05'0 0.0
2020-Jul-27 06:30N 25°48' W 080°05'0 0.0
2020-Jul-27 05:30N 25°48' W 080°05'0 0.1
2020-Jul-27 04:30N 25°48' W 080°05'0 0.0
2020-Jul-27 03:30N 25°48' W 080°05'0 0.0
2020-Jul-27 03:00N 25°48' W 080°05'0 0.0
2020-Jul-27 02:30N 25°48' W 080°05'0 0.0
2020-Jul-27 02:00N 25°48' W 080°05'0 0.0
2020-Jul-27 01:00N 25°48' W 080°05'0 0.0
2020-Jul-26 20:30N 25°48' W 080°05'0 0.0
2020-Jul-26 18:00N 25°48' W 080°05'0 0.0
2020-Jul-26 17:30N 25°48' W 080°05'0 0.0
2020-Jul-26 16:00N 25°48' W 080°05'0 0.0
2020-Jul-26 15:30N 25°48' W 080°05'0 0.0
2020-Jul-26 12:00N 25°48' W 080°05'0 0.0
2020-Jul-26 11:30N 25°48' W 080°05'0 0.0
2020-Jul-26 09:00N 25°48' W 080°05'0 0.0
2020-Jul-26 07:30N 25°48' W 080°05'0 0.0
2020-Jul-26 05:30N 25°48' W 080°05'0 0.0
2020-Jul-26 02:30N 25°48' W 080°05'0 0.0
2020-Jul-25 09:59N 25°48' W 080°05'0 0.0
2020-Jul-25 07:29N 25°48' W 080°05'0 0.0
2020-Jul-25 05:59N 25°48' W 080°05'0 0.0
2020-Jul-25 05:29N 25°48' W 080°05'0 0.0
2020-Jul-25 04:29N 25°48' W 080°05'0 0.0
2020-Jul-25 03:59N 25°48' W 080°05'0 0.0
2020-Jul-25 01:59N 25°48' W 080°05'0 0.0
2020-Jul-24 20:29N 25°48' W 080°05'0 0.0
2020-Jul-24 12:29N 25°48' W 080°05'0 0.0
2020-Jul-24 10:29N 25°48' W 080°05'0 0.0
2020-Jul-24 08:59N 25°48' W 080°05'0 0.0
2020-Jul-24 07:59N 25°48' W 080°05'0 0.0
2020-Jul-24 07:29N 25°48' W 080°05'0 0.0
2020-Jul-24 06:29N 25°48' W 080°05'0 0.0
2020-Jul-24 05:59N 25°48' W 080°05'0 0.0
2020-Jul-24 05:29N 25°48' W 080°05'0 0.0
2020-Jul-24 04:29N 25°48' W 080°05'0 0.0
2020-Jul-24 02:59N 25°48' W 080°05'0 0.0
2020-Jul-23 19:59N 25°48' W 080°05'0 0.0
2020-Jul-23 15:29N 25°48' W 080°05'0 0.0
2020-Jul-23 13:29N 25°48' W 080°05'0 0.0
2020-Jul-23 10:29N 25°48' W 080°05'0 0.0
2020-Jul-23 04:59N 25°48' W 080°05'0 0.0
2020-Jul-23 03:59N 25°48' W 080°05'0 0.0
2020-Jul-23 02:29N 25°48' W 080°05'0 0.0
2020-Jul-23 01:29N 25°48' W 080°05'0 0.0
2020-Jul-22 23:29N 25°48' W 080°05'0 0.0
2020-Jul-22 20:29N 25°48' W 080°05'0 0.0
2020-Jul-22 18:29N 25°48' W 080°05'0 0.0
2020-Jul-22 17:23N 25°48' W 080°05'0 0.0
2020-Jul-22 16:29N 25°48' W 080°05'0 0.0
2020-Jul-22 11:59N 25°48' W 080°05'0 0.0
2020-Jul-22 10:29N 25°48' W 080°05'0 0.0
2020-Jul-22 07:59N 25°48' W 080°05'0 0.0
2020-Jul-22 06:29N 25°48' W 080°05'0 0.0
2020-Jul-22 05:26N 25°48' W 080°05'0 0.0
2020-Jul-22 03:29N 25°48' W 080°05'0 0.0
2020-Jul-22 02:29N 25°48' W 080°05'0 0.0
2020-Jul-21 22:29N 25°48' W 080°05'0 0.0
2020-Jul-21 21:29N 25°48' W 080°05'0 0.0
2020-Jul-21 19:56N 25°48' W 080°05'0 0.0
2020-Jul-21 19:29N 25°48' W 080°05'0 0.0
2020-Jul-21 17:29N 25°48' W 080°05'0 0.0
2020-Jul-21 15:29N 25°48' W 080°05'0 0.0
2020-Jul-21 13:29N 25°48' W 080°05'0 0.0
2020-Jul-21 11:59N 25°48' W 080°05'0 0.0
2020-Jul-21 09:29N 25°48' W 080°05'0 0.0
2020-Jul-21 07:59N 25°48' W 080°05'0 0.0
2020-Jul-21 07:29N 25°48' W 080°05'0 0.0
2020-Jul-21 04:29N 25°48' W 080°05'0 0.0
2020-Jul-21 02:26N 25°48' W 080°05'0 0.0
2020-Jul-20 23:56N 25°48' W 080°05'  

Dump ship's entire track history